Time;durP1;ratioP1;P1;durP2;ratioP2;P2;SDS_P1;SDS_P2;PMS_P1;PMS_P2;Temp;Humidity;BMP_temperature;BMP_pressure;BME280_temperature;BME280_humidity;BME280_pressure;Samples;Min_cycle;Max_cycle;Signal;HPM_P1;HPM_P2
2023/09/15 00:00:25;;;;;;;15.75;11.27;;;;;;;;;;2073982;28;20036;-54
2023/09/15 00:01:27;;;;;;;16.10;11.00;;;;;;;;;;2074019;28;20053;-54
2023/09/15 00:02:28;;;;;;;15.05;12.05;;;;;;;;;;2073980;28;20482;-54
2023/09/15 00:03:28;;;;;;;15.23;12.30;;;;;;;;;;2073989;28;20124;-54
2023/09/15 00:04:29;;;;;;;17.02;11.43;;;;;;;;;;2073323;28;20042;-54
2023/09/15 00:05:30;;;;;;;17.08;12.57;;;;;;;;;;2073348;28;20049;-54
2023/09/15 00:06:31;;;;;;;12.65;10.82;;;;;;;;;;2074140;28;20037;-54
2023/09/15 00:07:32;;;;;;;17.58;11.75;;;;;;;;;;2074027;28;20056;-54
2023/09/15 00:08:34;;;;;;;17.23;11.70;;;;;;;;;;2073937;28;20052;-54
2023/09/15 00:09:34;;;;;;;19.85;12.95;;;;;;;;;;2074238;28;20042;-54
2023/09/15 00:10:35;;;;;;;15.07;11.90;;;;;;;;;;2073912;28;20034;-54
2023/09/15 00:11:42;;;;;;;16.27;12.98;;;;;;;;;;2072940;28;20050;-54
2023/09/15 00:12:43;;;;;;;15.13;12.55;;;;;;;;;;2073719;28;20030;-54
2023/09/15 00:13:44;;;;;;;15.60;12.75;;;;;;;;;;2073995;28;20033;-54
2023/09/15 00:14:46;;;;;;;15.35;11.93;;;;;;;;;;2073886;28;20033;-54
2023/09/15 00:15:50;;;;;;;18.20;12.38;;;;;;;;;;2073867;28;20371;-54
2023/09/15 00:16:51;;;;;;;16.92;12.77;;;;;;;;;;2073150;28;20049;-54
2023/09/15 00:17:52;;;;;;;16.77;11.63;;;;;;;;;;2074033;28;20034;-54
2023/09/15 00:18:52;;;;;;;19.10;12.73;;;;;;;;;;2073835;28;20068;-54
2023/09/15 00:19:53;;;;;;;13.75;10.75;;;;;;;;;;2073953;28;20046;-54
2023/09/15 00:20:54;;;;;;;15.02;11.32;;;;;;;;;;2073867;28;20049;-54
2023/09/15 00:21:55;;;;;;;15.65;11.32;;;;;;;;;;2074051;28;20057;-54
2023/09/15 00:22:56;;;;;;;17.23;12.27;;;;;;;;;;2073561;28;20038;-54
2023/09/15 00:23:56;;;;;;;18.90;12.18;;;;;;;;;;2073938;28;20473;-54
2023/09/15 00:24:57;;;;;;;15.00;11.18;;;;;;;;;;2073985;28;20478;-54
2023/09/15 00:26:03;;;;;;;16.48;11.60;;;;;;;;;;2073817;28;20030;-54
2023/09/15 00:27:04;;;;;;;15.73;11.57;;;;;;;;;;2074007;28;20393;-54
2023/09/15 00:28:04;;;;;;;14.35;11.63;;;;;;;;;;2074137;28;20120;-54
2023/09/15 00:29:05;;;;;;;17.13;12.48;;;;;;;;;;2073695;28;20085;-54
2023/09/15 00:30:08;;;;;;;14.85;12.20;;;;;;;;;;2074213;28;20390;-54
2023/09/15 00:31:10;;;;;;;13.75;10.55;;;;;;;;;;2073926;28;20042;-54
2023/09/15 00:32:11;;;;;;;16.92;13.57;;;;;;;;;;2073151;28;20053;-54
2023/09/15 00:33:12;;;;;;;19.35;12.00;;;;;;;;;;2072678;28;20049;-54
2023/09/15 00:34:14;;;;;;;17.77;12.63;;;;;;;;;;2073766;28;20046;-54
2023/09/15 00:35:18;;;;;;;16.70;11.80;;;;;;;;;;2073731;28;20034;-54
2023/09/15 00:36:18;;;;;;;18.38;10.65;;;;;;;;;;2073945;28;20125;-54
2023/09/15 00:37:19;;;;;;;16.50;11.65;;;;;;;;;;2073940;28;20053;-54
2023/09/15 00:38:21;;;;;;;18.83;12.35;;;;;;;;;;2073201;28;20049;-54
2023/09/15 00:39:24;;;;;;;16.88;12.65;;;;;;;;;;2073190;28;20053;-54
2023/09/15 00:40:24;;;;;;;16.83;13.25;;;;;;;;;;2074011;28;20050;-54
2023/09/15 00:41:25;;;;;;;15.65;12.15;;;;;;;;;;2072940;28;20041;-54
2023/09/15 00:42:26;;;;;;;19.92;12.25;;;;;;;;;;2065238;28;20222;-54
2023/09/15 00:43:27;;;;;;;17.48;13.57;;;;;;;;;;2072950;28;20402;-55
2023/09/15 00:44:27;;;;;;;16.70;13.15;;;;;;;;;;2073788;28;20493;-55
2023/09/15 00:45:28;;;;;;;18.90;13.40;;;;;;;;;;2073766;28;20041;-54
2023/09/15 00:46:30;;;;;;;19.80;13.95;;;;;;;;;;2073577;28;20072;-54
2023/09/15 00:47:31;;;;;;;16.15;12.98;;;;;;;;;;2072975;28;20041;-54
2023/09/15 00:48:32;;;;;;;15.80;12.80;;;;;;;;;;2072804;28;20049;-54
2023/09/15 00:49:33;;;;;;;17.25;12.50;;;;;;;;;;2064890;28;20389;-54
2023/09/15 00:50:33;;;;;;;18.42;13.57;;;;;;;;;;2073004;28;20473;-54
2023/09/15 00:51:34;;;;;;;18.95;13.23;;;;;;;;;;2080857;28;20081;-54
2023/09/15 00:52:37;;;;;;;22.80;13.77;;;;;;;;;;2074014;28;20184;-54
2023/09/15 00:53:38;;;;;;;18.27;14.32;;;;;;;;;;2073798;28;20034;-54
2023/09/15 00:54:39;;;;;;;19.40;14.05;;;;;;;;;;2073135;28;20038;-54
2023/09/15 00:55:40;;;;;;;17.83;13.60;;;;;;;;;;2057200;28;20043;-54
2023/09/15 00:56:41;;;;;;;18.77;14.32;;;;;;;;;;2064954;28;20039;-54
2023/09/15 00:57:42;;;;;;;16.70;12.18;;;;;;;;;;2072838;28;20490;-54
2023/09/15 00:58:43;;;;;;;16.58;13.20;;;;;;;;;;2073103;28;20508;-54
2023/09/15 00:59:43;;;;;;;20.25;13.95;;;;;;;;;;2073605;28;20069;-54
2023/09/15 01:00:44;;;;;;;20.42;13.48;;;;;;;;;;2073679;28;20042;-54
2023/09/15 01:01:47;;;;;;;17.55;14.38;;;;;;;;;;2073973;28;20034;-54
2023/09/15 01:02:48;;;;;;;18.30;13.40;;;;;;;;;;2073094;28;20044;-54
2023/09/15 01:03:49;;;;;;;17.67;14.85;;;;;;;;;;2072541;28;20042;-53
2023/09/15 01:04:51;;;;;;;20.27;12.82;;;;;;;;;;2073568;28;20050;-54
2023/09/15 01:05:51;;;;;;;19.52;14.75;;;;;;;;;;2073257;28;20502;-54
2023/09/15 01:06:52;;;;;;;17.30;13.15;;;;;;;;;;2064600;28;20038;-54
2023/09/15 01:07:53;;;;;;;19.23;14.30;;;;;;;;;;2064976;28;20030;-54
2023/09/15 01:08:55;;;;;;;23.98;13.23;;;;;;;;;;2064901;28;20037;-54
2023/09/15 01:09:55;;;;;;;18.90;13.20;;;;;;;;;;2065041;28;20395;-54
2023/09/15 01:11:01;;;;;;;18.67;12.95;;;;;;;;;;2065162;28;20041;-54
2023/09/15 01:12:04;;;;;;;21.02;14.05;;;;;;;;;;2072924;28;20473;-54
2023/09/15 01:13:05;;;;;;;19.05;13.05;;;;;;;;;;2073673;28;20038;-54
2023/09/15 01:14:07;;;;;;;19.92;13.77;;;;;;;;;;2073053;28;20037;-54
2023/09/15 01:15:07;;;;;;;18.88;14.27;;;;;;;;;;2072966;28;20034;-54
2023/09/15 01:16:24;;;;;;;17.60;13.48;;;;;;;;;;2073053;28;20068;-54
2023/09/15 01:17:26;;;;;;;19.92;14.05;;;;;;;;;;2067959;28;20053;-54
2023/09/15 01:18:46;;;;;;;21.65;14.27;;;;;;;;;;2066316;28;20054;-54
2023/09/15 01:20:16;;;;;;;18.85;14.38;;;;;;;;;;2068707;28;20050;-54
2023/09/15 01:21:21;;;;;;;18.45;13.35;;;;;;;;;;2053532;28;20037;-54
2023/09/15 01:22:40;;;;;;;17.10;13.90;;;;;;;;;;2074384;28;20662;-54
2023/09/15 01:23:44;;;;;;;19.73;14.88;;;;;;;;;;2074898;28;20034;-54
2023/09/15 01:24:57;;;;;;;16.92;13.82;;;;;;;;;;2074680;28;20449;-54
2023/09/15 01:26:05;;;;;;;18.60;13.40;;;;;;;;;;2073958;28;20042;-54
2023/09/15 01:27:09;;;;;;;20.50;14.18;;;;;;;;;;2074532;28;20042;-54
2023/09/15 01:28:16;;;;;;;20.27;14.43;;;;;;;;;;2075110;28;20046;-54
2023/09/15 01:29:37;;;;;;;17.42;13.95;;;;;;;;;;2074647;28;20418;-54
2023/09/15 01:30:38;;;;;;;19.38;15.35;;;;;;;;;;2069132;28;20054;-54
2023/09/15 01:31:39;;;;;;;19.17;14.57;;;;;;;;;;2066871;28;20030;-54
2023/09/15 01:32:41;;;;;;;17.90;14.38;;;;;;;;;;2058361;28;20395;-54
2023/09/15 01:33:42;;;;;;;17.75;14.10;;;;;;;;;;2066232;28;20046;-54
2023/09/15 01:34:46;;;;;;;20.08;14.52;;;;;;;;;;2082515;28;20033;-54
2023/09/15 01:35:47;;;;;;;18.38;13.88;;;;;;;;;;2075281;28;20054;-54
2023/09/15 01:36:50;;;;;;;18.75;14.90;;;;;;;;;;2074605;28;20343;-54
2023/09/15 01:37:51;;;;;;;21.35;15.77;;;;;;;;;;2074212;28;20430;-54
2023/09/15 01:38:52;;;;;;;22.60;16.55;;;;;;;;;;2074416;28;20069;-54
2023/09/15 01:39:53;;;;;;;20.50;15.45;;;;;;;;;;2074271;28;20049;-54
2023/09/15 01:40:53;;;;;;;23.80;15.20;;;;;;;;;;2074500;28;20045;-54
2023/09/15 01:41:54;;;;;;;20.15;13.98;;;;;;;;;;2074137;28;20053;-54
2023/09/15 01:42:55;;;;;;;20.30;14.10;;;;;;;;;;2073875;28;20049;-54
2023/09/15 01:43:56;;;;;;;20.38;15.38;;;;;;;;;;2075150;28;20029;-54
2023/09/15 01:44:57;;;;;;;22.75;15.68;;;;;;;;;;2074946;28;20041;-54
2023/09/15 01:45:57;;;;;;;18.45;14.48;;;;;;;;;;2075139;28;20485;-54
2023/09/15 01:46:58;;;;;;;20.08;14.45;;;;;;;;;;2073939;28;20038;-54
2023/09/15 01:47:59;;;;;;;18.00;14.35;;;;;;;;;;2073920;28;20050;-54
2023/09/15 01:49:00;;;;;;;18.17;14.57;;;;;;;;;;2074853;28;20477;-54
2023/09/15 01:50:02;;;;;;;18.48;15.00;;;;;;;;;;2066358;28;20077;-54
2023/09/15 01:51:03;;;;;;;18.83;15.50;;;;;;;;;;2074476;28;20045;-54
2023/09/15 01:52:04;;;;;;;23.02;15.18;;;;;;;;;;2058226;28;20072;-54
2023/09/15 01:53:05;;;;;;;17.33;13.88;;;;;;;;;;2050190;28;20039;-54
2023/09/15 01:54:05;;;;;;;19.98;14.82;;;;;;;;;;2074492;28;20041;-54
2023/09/15 01:55:06;;;;;;;16.17;11.95;;;;;;;;;;2074936;28;20053;-54
2023/09/15 01:56:09;;;;;;;21.55;14.90;;;;;;;;;;2066466;28;20077;-54
2023/09/15 01:57:10;;;;;;;18.27;13.85;;;;;;;;;;2058303;28;20475;-54
2023/09/15 01:58:11;;;;;;;21.10;14.20;;;;;;;;;;2066013;28;20057;-54
2023/09/15 01:59:14;;;;;;;20.67;13.68;;;;;;;;;;2066164;28;20402;-54
2023/09/15 02:00:16;;;;;;;20.85;13.50;;;;;;;;;;2066607;28;20398;-54
2023/09/15 02:01:16;;;;;;;20.20;13.50;;;;;;;;;;2074330;28;20046;-54
2023/09/15 02:02:17;;;;;;;19.13;13.70;;;;;;;;;;2073976;28;20474;-53
2023/09/15 02:03:18;;;;;;;20.02;15.35;;;;;;;;;;2074843;28;20128;-54
2023/09/15 02:04:19;;;;;;;19.75;14.88;;;;;;;;;;2074905;28;20046;-54
2023/09/15 02:05:23;;;;;;;20.77;14.15;;;;;;;;;;2074827;28;20041;-54
2023/09/15 02:06:24;;;;;;;18.38;14.85;;;;;;;;;;2074007;28;20429;-54
2023/09/15 02:07:25;;;;;;;20.23;15.32;;;;;;;;;;2073783;28;20080;-54
2023/09/15 02:08:25;;;;;;;20.15;14.70;;;;;;;;;;2073945;28;20048;-54
2023/09/15 02:09:26;;;;;;;20.58;15.77;;;;;;;;;;2074783;28;20041;-54
2023/09/15 02:10:27;;;;;;;19.27;15.38;;;;;;;;;;2074166;28;20052;-54
2023/09/15 02:11:28;;;;;;;18.17;14.50;;;;;;;;;;2073907;28;20049;-54
2023/09/15 02:12:28;;;;;;;19.25;14.05;;;;;;;;;;2074163;28;20091;-58
2023/09/15 02:13:29;;;;;;;21.30;15.32;;;;;;;;;;2065880;28;20050;-54
2023/09/15 02:14:30;;;;;;;22.02;15.90;;;;;;;;;;2066102;28;20046;-54
2023/09/15 02:15:30;;;;;;;20.80;15.15;;;;;;;;;;2074293;28;20061;-54
2023/09/15 02:16:31;;;;;;;21.40;15.65;;;;;;;;;;2074434;28;20133;-54
2023/09/15 02:17:32;;;;;;;20.60;15.48;;;;;;;;;;2065244;28;20051;-54
2023/09/15 02:18:33;;;;;;;19.42;15.18;;;;;;;;;;2073866;28;20422;-55
2023/09/15 02:19:34;;;;;;;20.60;15.00;;;;;;;;;;2074491;28;20073;-54
2023/09/15 02:20:35;;;;;;;20.85;14.80;;;;;;;;;;2073842;28;20049;-54
2023/09/15 02:21:36;;;;;;;17.95;13.57;;;;;;;;;;2066151;28;20407;-54
2023/09/15 02:22:38;;;;;;;20.70;14.57;;;;;;;;;;2074001;28;20070;-54
2023/09/15 02:23:39;;;;;;;17.95;14.68;;;;;;;;;;2074753;28;20049;-54
2023/09/15 02:24:39;;;;;;;20.55;15.10;;;;;;;;;;2074699;28;20046;-54
2023/09/15 02:25:40;;;;;;;24.73;16.15;;;;;;;;;;2074934;28;20030;-54
2023/09/15 02:26:41;;;;;;;18.58;14.38;;;;;;;;;;2074712;28;20478;-54
2023/09/15 02:27:42;;;;;;;21.23;16.05;;;;;;;;;;2074681;28;20069;-54
2023/09/15 02:28:42;;;;;;;21.15;13.35;;;;;;;;;;2073355;28;20030;-54
2023/09/15 02:29:43;;;;;;;20.67;16.35;;;;;;;;;;2073794;28;20049;-54
2023/09/15 02:30:44;;;;;;;18.77;14.90;;;;;;;;;;2074620;28;20033;-54
2023/09/15 02:31:45;;;;;;;19.83;14.65;;;;;;;;;;2074676;28;20034;-54
2023/09/15 02:32:47;;;;;;;20.52;16.00;;;;;;;;;;2074776;28;20030;-54
2023/09/15 02:33:47;;;;;;;19.05;13.25;;;;;;;;;;2074580;28;20049;-54
2023/09/15 02:34:48;;;;;;;20.95;14.85;;;;;;;;;;2065942;28;20391;-54
2023/09/15 02:35:50;;;;;;;20.90;14.95;;;;;;;;;;2058151;28;20042;-54
2023/09/15 02:36:50;;;;;;;19.63;16.05;;;;;;;;;;2074088;28;20059;-54
2023/09/15 02:37:51;;;;;;;23.00;16.40;;;;;;;;;;2073958;28;20094;-54
2023/09/15 02:38:54;;;;;;;21.15;15.75;;;;;;;;;;2065414;28;20073;-54
2023/09/15 02:39:56;;;;;;;21.77;16.08;;;;;;;;;;2073760;28;20072;-54
2023/09/15 02:40:56;;;;;;;20.70;15.45;;;;;;;;;;2066210;28;20041;-54
2023/09/15 02:41:57;;;;;;;20.15;13.55;;;;;;;;;;2065913;28;20073;-54
2023/09/15 02:42:58;;;;;;;18.55;13.85;;;;;;;;;;2073387;28;20057;-54
2023/09/15 02:43:59;;;;;;;23.45;15.65;;;;;;;;;;2074519;28;20081;-54
2023/09/15 02:45:00;;;;;;;20.33;15.48;;;;;;;;;;2073981;28;20034;-54
2023/09/15 02:46:04;;;;;;;17.80;15.45;;;;;;;;;;2073695;28;20042;-54
2023/09/15 02:47:05;;;;;;;20.42;16.50;;;;;;;;;;2073928;28;20387;-54
2023/09/15 02:48:06;;;;;;;23.15;15.50;;;;;;;;;;2066011;28;20042;-54
2023/09/15 02:49:06;;;;;;;23.50;15.70;;;;;;;;;;2065373;28;20057;-55
2023/09/15 02:50:07;;;;;;;23.45;16.75;;;;;;;;;;2073900;28;20091;-54
2023/09/15 02:51:10;;;;;;;22.75;16.02;;;;;;;;;;2065830;28;20049;-54
2023/09/15 02:52:10;;;;;;;20.35;15.95;;;;;;;;;;2065733;28;20049;-54
2023/09/15 02:53:11;;;;;;;20.85;14.60;;;;;;;;;;2081575;28;20050;-54
2023/09/15 02:54:12;;;;;;;22.50;17.05;;;;;;;;;;2073805;28;20477;-54
2023/09/15 02:55:13;;;;;;;22.35;16.65;;;;;;;;;;2065415;28;20133;-54
2023/09/15 02:56:14;;;;;;;22.42;16.15;;;;;;;;;;2065783;28;20049;-54
2023/09/15 02:57:15;;;;;;;21.17;16.30;;;;;;;;;;2065775;28;20049;-54
2023/09/15 02:58:16;;;;;;;22.70;16.33;;;;;;;;;;2073413;28;20050;-54
2023/09/15 02:59:17;;;;;;;19.95;14.70;;;;;;;;;;2073636;28;20050;-54
2023/09/15 03:00:19;;;;;;;20.77;15.73;;;;;;;;;;2074398;28;20497;-54
2023/09/15 03:01:20;;;;;;;21.42;16.83;;;;;;;;;;2073526;28;20049;-54
2023/09/15 03:02:24;;;;;;;20.30;16.00;;;;;;;;;;2073879;28;20470;-54
2023/09/15 03:03:25;;;;;;;22.73;16.25;;;;;;;;;;2073782;28;20426;-54
2023/09/15 03:04:26;;;;;;;23.08;16.45;;;;;;;;;;2065365;28;20050;-54
2023/09/15 03:05:27;;;;;;;18.40;15.30;;;;;;;;;;2073478;28;20041;-54
2023/09/15 03:06:27;;;;;;;20.90;15.57;;;;;;;;;;2073532;28;20057;-54
2023/09/15 03:07:28;;;;;;;20.70;14.60;;;;;;;;;;2065285;28;20042;-54
2023/09/15 03:08:29;;;;;;;28.27;16.35;;;;;;;;;;2065871;28;20035;-54
2023/09/15 03:09:31;;;;;;;21.38;15.18;;;;;;;;;;2073221;28;20504;-54
2023/09/15 03:10:33;;;;;;;20.80;16.17;;;;;;;;;;2073097;28;20061;-54
2023/09/15 03:11:34;;;;;;;22.23;15.95;;;;;;;;;;2073236;28;20042;-54
2023/09/15 03:12:38;;;;;;;22.25;16.77;;;;;;;;;;2065937;28;20384;-54
2023/09/15 03:13:40;;;;;;;21.45;15.73;;;;;;;;;;2073798;28;20038;-54
2023/09/15 03:14:40;;;;;;;22.30;16.48;;;;;;;;;;2074310;28;20414;-54
2023/09/15 03:15:41;;;;;;;23.35;16.63;;;;;;;;;;2074329;28;20121;-54
2023/09/15 03:16:43;;;;;;;19.35;14.38;;;;;;;;;;2073500;28;20065;-54
2023/09/15 03:17:44;;;;;;;21.10;16.75;;;;;;;;;;2073611;28;20077;-54
2023/09/15 03:18:49;;;;;;;24.48;17.33;;;;;;;;;;2074610;28;20049;-54
2023/09/15 03:19:51;;;;;;;21.30;16.00;;;;;;;;;;2073695;28;20037;-54
2023/09/15 03:20:53;;;;;;;19.25;15.05;;;;;;;;;;2065033;28;20114;-54
2023/09/15 03:21:54;;;;;;;22.98;16.90;;;;;;;;;;2065500;28;20118;-54
2023/09/15 03:22:55;;;;;;;20.27;17.50;;;;;;;;;;2065676;28;20038;-54
2023/09/15 03:23:55;;;;;;;19.70;15.30;;;;;;;;;;2065216;28;20105;-54
2023/09/15 03:24:57;;;;;;;22.45;17.50;;;;;;;;;;2065489;28;20404;-54
2023/09/15 03:25:58;;;;;;;19.55;16.27;;;;;;;;;;2065241;28;20038;-54
2023/09/15 03:26:59;;;;;;;23.75;17.52;;;;;;;;;;2073767;28;20413;-54
2023/09/15 03:28:00;;;;;;;22.50;15.70;;;;;;;;;;2066051;28;20046;-54
2023/09/15 03:29:00;;;;;;;22.70;16.92;;;;;;;;;;2073384;28;20129;-54
2023/09/15 03:30:04;;;;;;;20.10;15.52;;;;;;;;;;2074296;28;20045;-54
2023/09/15 03:31:04;;;;;;;26.45;17.85;;;;;;;;;;2073591;28;20046;-54
2023/09/15 03:32:05;;;;;;;23.75;17.27;;;;;;;;;;2065492;28;20454;-54
2023/09/15 03:33:06;;;;;;;20.95;16.58;;;;;;;;;;2073572;28;20038;-54
2023/09/15 03:34:07;;;;;;;20.88;15.90;;;;;;;;;;2073261;28;20171;-54
2023/09/15 03:35:08;;;;;;;23.35;17.13;;;;;;;;;;2073835;28;20038;-54
2023/09/15 03:36:09;;;;;;;21.70;16.15;;;;;;;;;;2073583;28;20045;-54
2023/09/15 03:37:10;;;;;;;23.38;17.08;;;;;;;;;;2064911;28;20050;-54
2023/09/15 03:38:11;;;;;;;21.15;16.15;;;;;;;;;;2065453;28;20042;-54
2023/09/15 03:39:12;;;;;;;23.48;17.38;;;;;;;;;;2073604;28;20058;-54
2023/09/15 03:40:13;;;;;;;24.10;17.33;;;;;;;;;;2072781;28;20443;-54
2023/09/15 03:41:14;;;;;;;24.05;16.75;;;;;;;;;;2073584;28;20053;-54
2023/09/15 03:42:15;;;;;;;25.00;17.27;;;;;;;;;;2073660;28;20037;-54
2023/09/15 03:43:15;;;;;;;24.70;16.77;;;;;;;;;;2074189;28;20136;-54
2023/09/15 03:44:17;;;;;;;24.55;16.30;;;;;;;;;;2072936;28;20045;-54
2023/09/15 03:45:17;;;;;;;22.35;16.98;;;;;;;;;;2072913;28;20517;-54
2023/09/15 03:46:20;;;;;;;22.13;16.65;;;;;;;;;;2074141;28;20046;-54
2023/09/15 03:47:20;;;;;;;23.23;17.60;;;;;;;;;;2073968;28;20038;-54
2023/09/15 03:48:21;;;;;;;22.40;17.17;;;;;;;;;;2073416;28;20045;-54
2023/09/15 03:49:23;;;;;;;24.08;17.83;;;;;;;;;;2065456;28;20042;-54
2023/09/15 03:50:24;;;;;;;26.02;18.23;;;;;;;;;;2073185;28;20089;-54
2023/09/15 03:51:26;;;;;;;22.35;15.63;;;;;;;;;;2072668;28;20053;-54
2023/09/15 03:52:26;;;;;;;24.10;17.48;;;;;;;;;;2073218;28;20041;-54
2023/09/15 03:53:27;;;;;;;24.58;16.92;;;;;;;;;;2074052;28;20077;-54
2023/09/15 03:54:28;;;;;;;24.85;17.50;;;;;;;;;;2074167;28;20401;-54
2023/09/15 03:55:29;;;;;;;25.48;17.58;;;;;;;;;;2074103;28;20046;-54
2023/09/15 03:56:30;;;;;;;24.50;18.58;;;;;;;;;;2074208;28;20076;-54
2023/09/15 03:57:31;;;;;;;23.75;17.80;;;;;;;;;;2073104;28;20053;-54
2023/09/15 03:58:32;;;;;;;24.08;17.92;;;;;;;;;;2073036;28;20054;-54
2023/09/15 03:59:33;;;;;;;26.42;17.35;;;;;;;;;;2073344;28;20402;-54
2023/09/15 04:00:33;;;;;;;24.50;18.05;;;;;;;;;;2065320;28;20045;-54
2023/09/15 04:01:34;;;;;;;24.08;18.52;;;;;;;;;;2073520;28;20049;-54
2023/09/15 04:02:35;;;;;;;24.65;17.80;;;;;;;;;;2073336;28;20038;-54
2023/09/15 04:03:36;;;;;;;24.77;19.02;;;;;;;;;;2073932;28;20030;-54
2023/09/15 04:04:36;;;;;;;26.50;16.35;;;;;;;;;;2073379;28;20076;-54
2023/09/15 04:05:41;;;;;;;23.63;17.73;;;;;;;;;;2065546;28;20042;-55
2023/09/15 04:06:41;;;;;;;24.52;17.83;;;;;;;;;;2073675;28;20402;-54
2023/09/15 04:07:42;;;;;;;23.42;16.20;;;;;;;;;;2074054;28;20129;-54
2023/09/15 04:08:43;;;;;;;27.27;19.70;;;;;;;;;;2073967;28;20040;-54
2023/09/15 04:09:43;;;;;;;26.20;17.85;;;;;;;;;;2074132;28;20088;-55
2023/09/15 04:10:44;;;;;;;31.30;19.17;;;;;;;;;;2073493;28;20038;-55
2023/09/15 04:11:46;;;;;;;25.73;19.20;;;;;;;;;;2065587;28;20038;-54
2023/09/15 04:12:47;;;;;;;27.10;19.45;;;;;;;;;;2073413;28;20033;-55
2023/09/15 04:13:48;;;;;;;25.33;19.63;;;;;;;;;;2073243;28;20060;-54
2023/09/15 04:14:49;;;;;;;28.20;18.58;;;;;;;;;;2065106;28;20042;-54
2023/09/15 04:15:50;;;;;;;28.52;18.55;;;;;;;;;;2073024;28;20363;-54
2023/09/15 04:16:51;;;;;;;27.02;18.67;;;;;;;;;;2072972;28;20033;-54
2023/09/15 04:17:52;;;;;;;26.50;19.45;;;;;;;;;;2073572;28;20052;-54
2023/09/15 04:18:53;;;;;;;27.02;18.77;;;;;;;;;;2073332;28;20399;-54
2023/09/15 04:19:53;;;;;;;27.17;17.48;;;;;;;;;;2072700;28;20037;-54
2023/09/15 04:20:54;;;;;;;24.83;19.02;;;;;;;;;;2073530;28;20041;-54
2023/09/15 04:21:55;;;;;;;28.23;20.17;;;;;;;;;;2072962;28;20069;-54
2023/09/15 04:22:55;;;;;;;26.00;18.90;;;;;;;;;;2073090;28;20046;-54
2023/09/15 04:23:56;;;;;;;29.75;19.83;;;;;;;;;;2065145;28;20045;-54
2023/09/15 04:24:57;;;;;;;26.25;17.08;;;;;;;;;;2065180;28;20155;-54
2023/09/15 04:25:58;;;;;;;28.35;18.52;;;;;;;;;;2073311;28;20025;-54
2023/09/15 04:26:58;;;;;;;25.95;17.40;;;;;;;;;;2073281;28;20068;-54
2023/09/15 04:27:59;;;;;;;28.98;20.38;;;;;;;;;;2064807;28;20120;-54
2023/09/15 04:29:00;;;;;;;33.97;22.52;;;;;;;;;;2065113;28;20070;-54
2023/09/15 04:30:02;;;;;;;28.73;20.65;;;;;;;;;;2064842;28;20034;-54
2023/09/15 04:31:22;;;;;;;25.40;19.15;;;;;;;;;;2067904;28;20038;-54
2023/09/15 04:32:24;;;;;;;30.10;18.55;;;;;;;;;;2065142;28;20394;-54
2023/09/15 04:33:25;;;;;;;26.65;18.58;;;;;;;;;;2065358;28;20038;-54
2023/09/15 04:34:25;;;;;;;28.90;19.98;;;;;;;;;;2065153;28;20394;-54
2023/09/15 04:35:27;;;;;;;32.63;22.05;;;;;;;;;;2064813;28;20502;-54
2023/09/15 04:36:28;;;;;;;29.50;21.15;;;;;;;;;;2064808;28;20046;-54
2023/09/15 04:37:29;;;;;;;26.52;20.85;;;;;;;;;;2073207;28;20042;-53
2023/09/15 04:38:30;;;;;;;28.48;19.92;;;;;;;;;;2072788;28;20097;-54
2023/09/15 04:39:31;;;;;;;28.92;21.15;;;;;;;;;;2081118;28;20057;-54
2023/09/15 04:40:32;;;;;;;26.83;19.15;;;;;;;;;;2081069;28;20041;-54
2023/09/15 04:41:32;;;;;;;28.95;21.55;;;;;;;;;;2073461;28;20046;-54
2023/09/15 04:42:33;;;;;;;29.25;21.77;;;;;;;;;;2073173;28;20038;-54
2023/09/15 04:43:35;;;;;;;29.38;22.23;;;;;;;;;;2073076;28;20049;-54
2023/09/15 04:44:36;;;;;;;29.90;21.42;;;;;;;;;;2072914;28;20418;-54
2023/09/15 04:45:38;;;;;;;29.05;21.08;;;;;;;;;;2072807;28;20042;-54
2023/09/15 04:46:40;;;;;;;29.17;21.27;;;;;;;;;;2065387;28;20474;-54
2023/09/15 04:47:40;;;;;;;33.65;23.08;;;;;;;;;;2073092;28;20084;-54
2023/09/15 04:48:49;;;;;;;29.98;20.55;;;;;;;;;;2073784;28;20463;-54
2023/09/15 04:49:49;;;;;;;31.00;21.10;;;;;;;;;;2072829;28;20073;-54
2023/09/15 04:50:50;;;;;;;34.30;22.80;;;;;;;;;;2065035;28;20075;-54
2023/09/15 04:51:53;;;;;;;31.38;21.80;;;;;;;;;;2065562;28;20038;-54
2023/09/15 04:52:55;;;;;;;32.13;21.75;;;;;;;;;;2066240;28;20510;-54
2023/09/15 04:53:56;;;;;;;31.50;21.63;;;;;;;;;;2066975;28;20042;-54
2023/09/15 04:54:57;;;;;;;31.35;21.35;;;;;;;;;;2066397;28;20047;-54
2023/09/15 04:55:58;;;;;;;30.80;21.13;;;;;;;;;;2066649;28;20126;-54
2023/09/15 04:56:58;;;;;;;29.48;19.73;;;;;;;;;;2074797;28;20037;-54
2023/09/15 04:57:59;;;;;;;31.13;21.77;;;;;;;;;;2074657;28;20052;-54
2023/09/15 04:59:00;;;;;;;33.22;22.83;;;;;;;;;;2066283;28;20474;-54
2023/09/15 05:00:04;;;;;;;33.28;23.83;;;;;;;;;;2066750;28;20426;-54
2023/09/15 05:01:07;;;;;;;29.73;22.10;;;;;;;;;;2066775;28;20050;-54
2023/09/15 05:02:08;;;;;;;31.77;23.45;;;;;;;;;;2066730;28;20042;-54
2023/09/15 05:03:10;;;;;;;35.42;24.33;;;;;;;;;;2066822;28;20097;-54
2023/09/15 05:04:11;;;;;;;32.40;22.85;;;;;;;;;;2066395;28;20062;-54
2023/09/15 05:05:11;;;;;;;30.45;22.60;;;;;;;;;;2058302;28;20047;-54
2023/09/15 05:06:12;;;;;;;30.80;23.30;;;;;;;;;;2066069;28;20074;-54
2023/09/15 05:07:13;;;;;;;31.70;22.70;;;;;;;;;;2074712;28;20137;-54
2023/09/15 05:08:14;;;;;;;33.85;22.70;;;;;;;;;;2074430;28;20064;-54
2023/09/15 05:09:20;;;;;;;35.65;20.73;;;;;;;;;;2075165;28;20458;-53
2023/09/15 05:10:20;;;;;;;31.02;22.20;;;;;;;;;;2074546;28;20041;-54
2023/09/15 05:11:21;;;;;;;34.63;22.55;;;;;;;;;;2066309;28;20050;-54
2023/09/15 05:12:22;;;;;;;31.95;21.27;;;;;;;;;;2074918;28;20117;-54
2023/09/15 05:13:23;;;;;;;35.17;21.02;;;;;;;;;;2074473;28;20089;-54
2023/09/15 05:14:24;;;;;;;34.10;21.38;;;;;;;;;;2066448;28;20046;-54
2023/09/15 05:15:24;;;;;;;34.28;21.42;;;;;;;;;;2074657;28;20066;-54
2023/09/15 05:16:25;;;;;;;32.40;23.58;;;;;;;;;;2074380;28;20045;-54
2023/09/15 05:17:26;;;;;;;35.53;25.08;;;;;;;;;;2066152;28;20567;-54
2023/09/15 05:18:28;;;;;;;34.67;23.05;;;;;;;;;;2066554;28;20043;-54
2023/09/15 05:19:29;;;;;;;34.78;22.80;;;;;;;;;;2074618;28;20042;-54
2023/09/15 05:20:30;;;;;;;27.30;19.23;;;;;;;;;;2066508;28;20483;-54
2023/09/15 05:21:31;;;;;;;32.60;22.55;;;;;;;;;;2066796;28;20115;-54
2023/09/15 05:22:32;;;;;;;32.75;21.85;;;;;;;;;;2074589;28;20046;-54
2023/09/15 05:23:33;;;;;;;32.85;23.30;;;;;;;;;;2074250;28;20053;-54
2023/09/15 05:24:33;;;;;;;35.92;24.55;;;;;;;;;;2066123;28;20053;-54
2023/09/15 05:25:34;;;;;;;31.98;20.77;;;;;;;;;;2066476;28;20062;-54
2023/09/15 05:26:36;;;;;;;35.42;22.15;;;;;;;;;;2074086;28;20049;-54
2023/09/15 05:27:37;;;;;;;32.08;21.27;;;;;;;;;;2074324;28;20510;-54
2023/09/15 05:28:38;;;;;;;32.72;22.17;;;;;;;;;;2074311;28;20101;-53
2023/09/15 05:29:38;;;;;;;32.20;21.83;;;;;;;;;;2074610;28;20041;-53
2023/09/15 05:30:39;;;;;;;30.75;20.02;;;;;;;;;;2066149;28;20046;-53
2023/09/15 05:31:40;;;;;;;30.95;19.83;;;;;;;;;;2066208;28;20042;-54
2023/09/15 05:32:41;;;;;;;29.52;19.02;;;;;;;;;;2066422;28;20041;-55
2023/09/15 05:33:42;;;;;;;31.88;20.58;;;;;;;;;;2074542;28;20053;-53
2023/09/15 05:34:42;;;;;;;32.30;21.27;;;;;;;;;;2074451;28;20053;-53
2023/09/15 05:35:43;;;;;;;30.85;21.13;;;;;;;;;;2066495;28;20042;-53
2023/09/15 05:36:44;;;;;;;33.72;24.17;;;;;;;;;;2066050;28;20061;-53
2023/09/15 05:37:45;;;;;;;37.50;22.42;;;;;;;;;;2074156;28;20493;-54
2023/09/15 05:38:46;;;;;;;37.40;23.90;;;;;;;;;;2074683;28;20052;-54
2023/09/15 05:39:46;;;;;;;37.58;22.60;;;;;;;;;;2074470;28;20037;-54
2023/09/15 05:40:47;;;;;;;32.72;20.58;;;;;;;;;;2066096;28;20038;-53
2023/09/15 05:41:48;;;;;;;33.42;22.90;;;;;;;;;;2066626;28;20073;-54
2023/09/15 05:42:49;;;;;;;38.50;20.80;;;;;;;;;;2074150;28;20046;-53
2023/09/15 05:43:49;;;;;;;42.03;25.30;;;;;;;;;;2074739;28;20500;-53
2023/09/15 05:44:54;;;;;;;49.15;26.63;;;;;;;;;;2074992;28;20025;-53
2023/09/15 05:45:56;;;;;;;47.97;29.15;;;;;;;;;;2074648;28;20501;-53
2023/09/15 05:46:56;;;;;;;57.28;29.67;;;;;;;;;;2075327;28;20022;-53
2023/09/15 05:47:57;;;;;;;49.17;27.55;;;;;;;;;;2077903;28;20038;-54
2023/09/15 05:48:58;;;;;;;51.03;27.52;;;;;;;;;;2074468;28;20068;-53
2023/09/15 05:50:02;;;;;;;52.53;28.67;;;;;;;;;;2074355;28;20037;-53
2023/09/15 05:51:04;;;;;;;58.58;28.65;;;;;;;;;;2074896;28;20037;-53
2023/09/15 05:52:04;;;;;;;67.72;31.50;;;;;;;;;;2075065;28;20042;-53
2023/09/15 05:53:05;;;;;;;56.80;30.10;;;;;;;;;;2074911;28;20049;-54
2023/09/15 05:54:06;;;;;;;68.03;32.78;;;;;;;;;;2074908;28;20050;-53
2023/09/15 05:55:07;;;;;;;79.63;37.95;;;;;;;;;;2075110;28;20107;-54
2023/09/15 05:56:07;;;;;;;74.13;35.88;;;;;;;;;;2074921;28;20069;-53
2023/09/15 05:57:08;;;;;;;66.75;31.45;;;;;;;;;;2074889;28;20046;-54
2023/09/15 05:58:09;;;;;;;71.32;30.25;;;;;;;;;;2075357;28;20041;-53